Ixtapa Zihuatanejo, Mexico

9:42 AM CST on November 23, 2014 (GMT -0600)
Ixtapa-Zihuatanejo International | Change Station
CLOSE
Current Station
Airport
Location: Ixtapa Zihuatanejo,
Elevation: 20 ft
Nearby Weather Stations

Elev 20 ft 17.60 °N, 101.46 °W | Updated 57 minutes ago

Scattered Clouds
Scattered Clouds
81 °F
Feels Like 85 °F
N
0
Wind Variable Wind from North

Today
High -- | Low -- °F
--% Chance of Precip.
Yesterday
High -- | Low -- °F
Precip. -- in
6:55 AM 6:08 PM
New Moon, 2% visible
Pressure 29.88 in
Visibility 8.0 miles
Clouds Scattered Clouds 25000 ft
Heat Index 85 °F
Dew Point 73 °F
Humidity 79%
Rainfall 0.00 in
Snow Depth Not available.
UV 1 out of 12
Pollen Not available.
Air Quality Not available.
Flu Activity Not available.
METAR MMZH 231445Z 00000KT 8SM SCT250 27/23 A2988 RMK SLP/// 5//// 9// 8/002 HZY

More Conditions Fewer Conditions

Pressure 29.88 in
Visibility 8.0 miles
Clouds Scattered Clouds 25000 ft
Heat Index 85 °F
Dew Point 73 °F
Humidity 79%
Rainfall 0.00 in
Snow Depth Not available.
UV 1 out of 12
Pollen Not available.
Air Quality Not available.
Flu Activity Not available.
METAR MMZH 231445Z 00000KT 8SM SCT250 27/23 A2988 RMK SLP/// 5//// 9// 8/002 HZY

More Conditions Fewer Conditions

10-Day Weather Forecast

Almanac

Astronomy

Nov. 23, 2014 Rise Set
Actual Time
Civil Twilight
Nautical Twilight
Astronomical Twilight
Moon
Length of Visible Light
Length of Day
Tomorrow will be .
, % of the Moon is Illuminated

Today's Extremes

Country Highs Country Lows

Community

WunderPhotos

Upload Photos

1,773,082 photos uploaded!

WunderBlogs® & News

Nearby

Air Quality

  Air Quality AQ Index Pollutant
Not available.

Snow Depth

Station Depth Elevation

Earthquake Activity

City Distance Mag. Time & Date
Minimum magnitude displayed is 2.5.

Coastal Water Temperatures

Place Temperature

Nearby Weather Stations